Time;durP1;ratioP1;P1;durP2;ratioP2;P2;SDS_P1;SDS_P2;PMS_P1;PMS_P2;Temp;Humidity;BMP_temperature;BMP_pressure;BME280_temperature;BME280_humidity;BME280_pressure;Samples;Min_cycle;Max_cycle;Signal;HPM_P1;HPM_P2
2021/12/21 00:00:15;;;;;;;8.30;5.17;;;0.00;99.90;;;;;;5023036;28;20436;-71
2021/12/21 00:02:45;;;;;;;12.83;6.10;;;0.00;99.90;;;;;;5034609;28;20578;-71
2021/12/21 00:05:15;;;;;;;6.80;5.00;;;-0.10;99.90;;;;;;5024480;28;20560;-71
2021/12/21 00:07:42;;;;;;;5.13;4.60;;;-0.10;99.90;;;;;;5014905;28;20459;-68
2021/12/21 00:10:12;;;;;;;3.20;3.00;;;-0.10;99.90;;;;;;5001827;28;20676;-70
2021/12/21 00:12:47;;;;;;;6.30;4.10;;;-0.20;99.90;;;;;;5008625;28;21045;-69
2021/12/21 00:15:22;;;;;;;3.43;3.13;;;-0.40;99.90;;;;;;5000643;28;22323;-71
2021/12/21 00:17:54;;;;;;;11.10;5.30;;;-0.50;99.90;;;;;;5009582;28;20731;-71
2021/12/21 00:20:31;;;;;;;4.60;2.87;;;-0.40;99.90;;;;;;4994639;28;20697;-71
2021/12/21 00:25:45;;;;;;;7.50;3.87;;;-0.30;99.90;;;;;;5003399;28;20470;-69
2021/12/21 00:28:12;;;;;;;4.90;2.17;;;-0.20;99.90;;;;;;5007341;28;20506;-67
2021/12/21 00:30:39;;;;;;;6.87;4.33;;;-0.20;99.90;;;;;;5005069;28;20559;-70
2021/12/21 00:33:07;;;;;;;3.23;2.13;;;-0.10;99.90;;;;;;5004123;28;20958;-69
2021/12/21 00:35:34;;;;;;;4.93;3.87;;;-0.20;99.90;;;;;;4992333;28;21777;-71
2021/12/21 00:38:03;;;;;;;6.43;3.23;;;-0.30;99.90;;;;;;5010123;28;20541;-71
2021/12/21 00:40:30;;;;;;;25.07;7.30;;;-0.30;99.90;;;;;;5003016;28;20457;-72
2021/12/21 00:42:58;;;;;;;11.33;5.30;;;-0.20;99.90;;;;;;5013290;28;21353;-70
2021/12/21 00:45:25;;;;;;;2.70;2.50;;;-0.10;99.90;;;;;;5006106;28;20632;-69
2021/12/21 00:47:52;;;;;;;14.63;7.13;;;-0.20;99.90;;;;;;5007954;28;21030;-71
2021/12/21 00:50:21;;;;;;;14.33;6.67;;;-0.20;99.90;;;;;;5012313;28;20804;-72
2021/12/21 00:52:50;;;;;;;6.53;3.70;;;0.00;99.90;;;;;;5013385;28;20457;-70
2021/12/21 00:55:18;;;;;;;15.70;4.50;;;-0.10;99.90;;;;;;5006428;28;20438;-70
2021/12/21 00:57:45;;;;;;;13.27;5.30;;;-0.10;99.90;;;;;;5015490;28;20575;-69
2021/12/21 01:00:18;;;;;;;8.00;5.17;;;-0.20;99.90;;;;;;5002713;28;20433;-71
2021/12/21 01:02:46;;;;;;;16.90;9.20;;;-0.20;99.90;;;;;;5003178;28;20966;-70
2021/12/21 01:05:20;;;;;;;7.03;5.70;;;-0.10;99.90;;;;;;4999037;28;20534;-71
2021/12/21 01:07:50;;;;;;;14.43;6.00;;;-0.10;99.90;;;;;;5024887;28;21091;-69
2021/12/21 01:13:13;;;;;;;12.63;6.00;;;-0.30;99.90;;;;;;5026115;28;20507;-69
2021/12/21 01:18:40;;;;;;;12.47;5.80;;;-0.40;99.90;;;;;;5076476;27;20625;-71
2021/12/21 01:21:13;;;;;;;6.93;6.33;;;-0.50;99.90;;;;;;5050022;28;20436;-70
2021/12/21 01:24:03;;;;;;;3.13;1.90;;;-0.40;99.90;;;;;;5025193;28;21200;-70
2021/12/21 01:26:37;;;;;;;4.60;4.07;;;-0.50;99.90;;;;;;5017019;28;20567;-71
2021/12/21 01:29:13;;;;;;;5.83;4.23;;;-0.60;99.90;;;;;;5027753;28;20462;-71
2021/12/21 01:31:49;;;;;;;4.20;1.93;;;-0.60;99.90;;;;;;5024001;28;21508;-69
2021/12/21 01:34:33;;;;;;;9.77;6.83;;;-0.70;99.90;;;;;;5016734;28;20471;-69
2021/12/21 01:37:05;;;;;;;9.17;4.37;;;-0.80;99.90;;;;;;5023930;28;20512;-70
2021/12/21 01:42:25;;;;;;;7.90;6.33;;;-0.90;99.90;;;;;;5029117;28;20488;-69
2021/12/21 01:50:23;;;;;;;9.60;4.67;;;-0.50;99.90;;;;;;5024530;28;20565;-71
2021/12/21 01:52:50;;;;;;;16.13;7.03;;;-0.60;99.90;;;;;;5016576;28;20913;-69
2021/12/21 01:55:17;;;;;;;9.40;6.40;;;-0.70;99.90;;;;;;5022378;28;20533;-71
2021/12/21 01:57:44;;;;;;;13.87;6.00;;;-0.70;99.90;;;;;;5019637;28;20544;-70
2021/12/21 02:00:13;;;;;;;7.93;3.50;;;-0.50;99.90;;;;;;5019934;28;21895;-71
2021/12/21 02:02:39;;;;;;;20.33;7.50;;;-0.40;99.90;;;;;;5026829;28;20485;-69
2021/12/21 02:05:08;;;;;;;15.90;7.00;;;-0.30;99.90;;;;;;5020421;28;20533;-69
2021/12/21 02:07:36;;;;;;;13.30;6.73;;;-0.20;99.90;;;;;;5004094;28;20943;-69
2021/12/21 02:10:05;;;;;;;19.50;5.83;;;-0.20;99.90;;;;;;5021039;28;20445;-68
2021/12/21 02:12:33;;;;;;;15.30;6.77;;;-0.10;99.90;;;;;;5009380;28;22198;-70
2021/12/21 02:15:01;;;;;;;23.30;6.23;;;-0.20;99.90;;;;;;5023032;28;20786;-71
2021/12/21 02:20:24;;;;;;;6.40;4.83;;;-0.30;99.90;;;;;;5018143;28;20425;-72
2021/12/21 02:22:58;;;;;;;9.17;4.97;;;-0.20;99.90;;;;;;5010219;28;20490;-70
2021/12/21 02:25:50;;;;;;;15.80;8.87;;;-0.20;99.90;;;;;;5002248;28;20463;-71
2021/12/21 02:28:44;;;;;;;18.67;8.63;;;-0.30;99.90;;;;;;5006462;28;20472;-70
2021/12/21 02:31:11;;;;;;;3.20;3.00;;;-0.30;99.90;;;;;;5009289;28;20553;-70
2021/12/21 02:33:38;;;;;;;18.50;5.73;;;-0.50;99.90;;;;;;5008092;28;20547;-69
2021/12/21 02:36:07;;;;;;;8.23;2.90;;;-0.60;99.90;;;;;;4997798;28;22433;-71
2021/12/21 02:38:34;;;;;;;33.47;7.43;;;-0.70;99.90;;;;;;5006520;28;20928;-70
2021/12/21 02:41:01;;;;;;;12.00;5.73;;;-0.80;99.90;;;;;;5007157;28;20570;-68
2021/12/21 02:43:28;;;;;;;3.70;3.40;;;-0.70;99.90;;;;;;5014751;28;20521;-68
2021/12/21 02:45:56;;;;;;;3.07;2.67;;;-0.80;99.90;;;;;;4996070;28;21204;-71
2021/12/21 02:48:23;;;;;;;2.53;2.40;;;-0.90;99.90;;;;;;5007519;28;21541;-69
2021/12/21 02:50:50;;;;;;;8.67;6.80;;;-0.90;99.90;;;;;;5001180;28;20554;-68
2021/12/21 02:53:18;;;;;;;19.53;7.77;;;-1.00;99.90;;;;;;5009005;28;21116;-68
2021/12/21 02:55:46;;;;;;;10.03;3.40;;;-0.90;99.90;;;;;;5002295;28;20443;-71
2021/12/21 02:58:13;;;;;;;16.83;9.03;;;-0.90;99.90;;;;;;5001138;28;20491;-68
2021/12/21 03:00:40;;;;;;;29.87;9.63;;;-1.00;99.90;;;;;;4999093;28;20467;-69
2021/12/21 03:03:12;;;;;;;30.80;11.37;;;-0.80;99.90;;;;;;4995119;28;20455;-70
2021/12/21 03:05:44;;;;;;;21.37;9.93;;;-0.60;99.90;;;;;;5005193;28;20441;-70
2021/12/21 03:08:15;;;;;;;18.40;7.40;;;-0.60;99.90;;;;;;4997802;28;20468;-72
2021/12/21 03:10:59;;;;;;;9.47;5.27;;;-0.70;99.90;;;;;;4999183;28;20442;-71
2021/12/21 03:16:11;;;;;;;5.87;5.23;;;-0.80;99.90;;;;;;4996937;28;20963;-68
2021/12/21 03:18:38;;;;;;;16.83;8.87;;;-0.90;99.90;;;;;;5016216;28;20908;-69
2021/12/21 03:21:05;;;;;;;11.97;6.47;;;-1.10;99.90;;;;;;4994252;28;20483;-68
2021/12/21 03:23:32;;;;;;;21.73;11.70;;;-0.90;99.90;;;;;;5009409;28;20834;-71
2021/12/21 03:26:00;;;;;;;5.37;4.63;;;-0.80;99.90;;;;;;4983925;28;20487;-70
2021/12/21 03:28:27;;;;;;;17.90;7.73;;;-0.90;99.90;;;;;;5005179;28;20588;-69
2021/12/21 03:30:54;;;;;;;12.53;4.83;;;-1.00;99.90;;;;;;5004544;28;20594;-68
2021/12/21 03:33:21;;;;;;;44.33;14.40;;;-1.00;99.90;;;;;;5002429;28;20438;-70
2021/12/21 03:35:49;;;;;;;6.90;6.30;;;-0.90;99.90;;;;;;5002006;28;20675;-71
2021/12/21 03:38:16;;;;;;;26.47;11.00;;;-0.80;99.90;;;;;;4998683;28;20541;-69
2021/12/21 03:40:44;;;;;;;6.00;5.40;;;-0.70;99.90;;;;;;4996550;28;20456;-70
2021/12/21 03:43:12;;;;;;;6.83;5.40;;;-0.70;99.90;;;;;;5002854;28;20482;-71
2021/12/21 03:45:45;;;;;;;15.63;6.87;;;-0.70;99.90;;;;;;5005526;28;20544;-69
2021/12/21 03:48:14;;;;;;;10.53;6.20;;;-0.80;99.90;;;;;;4998151;28;20513;-70
2021/12/21 03:50:42;;;;;;;8.80;4.60;;;-0.80;99.90;;;;;;5014471;28;20445;-71
2021/12/21 03:53:09;;;;;;;12.30;5.17;;;-0.60;99.90;;;;;;4998999;28;20616;-69
2021/12/21 03:55:36;;;;;;;13.50;5.00;;;-0.70;99.90;;;;;;4985926;28;20568;-70
2021/12/21 03:58:03;;;;;;;14.97;6.50;;;-0.90;99.90;;;;;;4996334;28;20463;-69
2021/12/21 04:00:31;;;;;;;12.30;6.27;;;-0.90;99.90;;;;;;5002728;28;20446;-71
2021/12/21 04:02:58;;;;;;;4.73;3.57;;;-0.70;99.90;;;;;;5003703;28;20502;-69
2021/12/21 04:05:25;;;;;;;12.63;5.47;;;-0.70;99.90;;;;;;4985245;28;20531;-71
2021/12/21 04:07:52;;;;;;;9.87;4.60;;;-0.80;99.90;;;;;;5001933;28;20950;-70
2021/12/21 04:10:19;;;;;;;3.07;2.87;;;-0.90;99.90;;;;;;5000945;28;21055;-70
2021/12/21 04:12:46;;;;;;;6.10;5.60;;;-0.90;99.90;;;;;;4998831;28;21945;-71
2021/12/21 04:15:16;;;;;;;11.07;5.43;;;-0.90;99.90;;;;;;4999814;28;20443;-71
2021/12/21 04:17:44;;;;;;;2.33;1.63;;;-1.00;99.90;;;;;;4996160;28;20487;-71
2021/12/21 04:20:12;;;;;;;5.77;3.40;;;-1.10;99.90;;;;;;5003510;28;20502;-72
2021/12/21 04:22:39;;;;;;;3.23;3.03;;;-1.20;99.90;;;;;;5002807;28;20572;-69
2021/12/21 04:25:08;;;;;;;20.73;8.13;;;-1.20;99.90;;;;;;4997545;28;20616;-71
2021/12/21 04:27:35;;;;;;;11.30;5.80;;;-1.20;99.90;;;;;;4992328;28;20572;-71
2021/12/21 04:30:02;;;;;;;13.60;3.90;;;-1.00;99.90;;;;;;5004514;28;20442;-68
2021/12/21 04:32:29;;;;;;;3.00;2.73;;;-0.90;99.90;;;;;;4989372;28;20479;-71
2021/12/21 04:34:57;;;;;;;13.00;4.93;;;-1.00;99.90;;;;;;4975708;28;20460;-70
2021/12/21 04:37:25;;;;;;;8.40;4.63;;;-1.10;99.90;;;;;;4996545;28;20463;-71
2021/12/21 04:39:59;;;;;;;5.43;3.57;;;-1.00;99.90;;;;;;4988409;28;21748;-71
2021/12/21 04:42:26;;;;;;;10.73;4.40;;;-0.90;99.90;;;;;;4983414;28;20450;-70
2021/12/21 04:44:53;;;;;;;9.23;4.77;;;-1.00;99.90;;;;;;4988963;28;20434;-69
2021/12/21 04:47:20;;;;;;;4.10;3.80;;;-1.10;99.90;;;;;;5000105;28;20435;-70
2021/12/21 04:49:47;;;;;;;9.13;3.03;;;-1.00;99.90;;;;;;4988044;28;20605;-69
2021/12/21 04:52:16;;;;;;;4.60;3.90;;;-1.10;99.90;;;;;;4989843;28;20484;-69
2021/12/21 04:54:43;;;;;;;8.67;2.77;;;-1.20;99.90;;;;;;4991460;28;20524;-70
2021/12/21 04:57:10;;;;;;;5.80;3.83;;;-1.30;99.90;;;;;;4990118;28;20691;-70
2021/12/21 04:59:37;;;;;;;7.00;4.20;;;-1.30;99.90;;;;;;4994948;28;20810;-70
2021/12/21 05:02:05;;;;;;;5.60;4.80;;;-1.20;99.90;;;;;;4997799;28;20574;-68
2021/12/21 05:04:32;;;;;;;3.07;1.60;;;-1.10;99.90;;;;;;5001551;28;20434;-69
2021/12/21 05:06:59;;;;;;;9.93;5.23;;;-1.10;99.90;;;;;;4994214;28;20710;-70
2021/12/21 05:09:36;;;;;;;3.37;3.07;;;-1.10;99.90;;;;;;4981401;28;20551;-69
2021/12/21 05:12:05;;;;;;;15.83;6.80;;;-0.90;99.90;;;;;;4992366;28;20461;-69
2021/12/21 05:14:32;;;;;;;5.93;5.20;;;-0.70;99.90;;;;;;4982798;28;20517;-71
2021/12/21 05:16:59;;;;;;;16.23;4.17;;;-0.80;99.90;;;;;;4984389;28;20472;-70
2021/12/21 05:19:27;;;;;;;7.07;4.67;;;-0.90;99.90;;;;;;4991051;28;20567;-70
2021/12/21 05:21:54;;;;;;;11.37;4.13;;;-1.00;99.90;;;;;;4986026;28;20491;-71
2021/12/21 05:24:22;;;;;;;8.63;4.37;;;-0.90;99.90;;;;;;5002687;28;20529;-70
2021/12/21 05:26:50;;;;;;;13.73;6.23;;;-0.90;99.90;;;;;;5013481;28;20434;-70
2021/12/21 05:29:17;;;;;;;2.23;2.13;;;-0.80;99.90;;;;;;5008564;28;20453;-71
2021/12/21 05:31:44;;;;;;;18.03;4.20;;;-0.80;99.90;;;;;;5002685;28;20988;-70
2021/12/21 05:34:11;;;;;;;8.37;5.70;;;-0.80;99.90;;;;;;4991605;28;20474;-72
2021/12/21 05:36:38;;;;;;;4.57;3.30;;;-1.00;99.90;;;;;;4980703;28;20441;-69
2021/12/21 05:39:15;;;;;;;3.67;3.30;;;-1.10;99.90;;;;;;5001365;28;23722;-69
2021/12/21 05:41:49;;;;;;;6.10;4.97;;;-1.10;99.90;;;;;;4996674;28;20480;-70
2021/12/21 05:44:18;;;;;;;4.20;3.57;;;-1.00;99.90;;;;;;4999259;28;22781;-71
2021/12/21 05:46:46;;;;;;;7.30;4.73;;;-0.90;99.90;;;;;;4989798;28;20538;-70
2021/12/21 05:49:13;;;;;;;34.20;5.67;;;-0.80;99.90;;;;;;4992147;28;20435;-71
2021/12/21 05:51:40;;;;;;;16.00;6.40;;;-0.70;99.90;;;;;;4999123;28;21435;-71
2021/12/21 05:54:07;;;;;;;10.10;4.90;;;-0.70;99.90;;;;;;4995533;28;20635;-69
2021/12/21 05:56:35;;;;;;;8.00;4.80;;;-0.60;99.90;;;;;;4986501;28;20806;-71
2021/12/21 05:59:02;;;;;;;13.90;3.73;;;-0.60;99.90;;;;;;4982661;28;20450;-71
2021/12/21 06:01:31;;;;;;;11.53;6.30;;;-0.60;99.90;;;;;;4982955;28;21620;-70
2021/12/21 06:04:00;;;;;;;12.10;6.30;;;-0.60;99.90;;;;;;4993447;28;21703;-69
2021/12/21 06:06:27;;;;;;;10.13;5.60;;;-0.50;99.90;;;;;;5002622;28;20438;-69
2021/12/21 06:08:57;;;;;;;4.07;3.73;;;-0.50;99.90;;;;;;5006679;28;20464;-70
2021/12/21 06:11:24;;;;;;;13.10;3.97;;;-0.70;99.90;;;;;;4996157;28;20483;-71
2021/12/21 06:14:13;;;;;;;6.27;4.13;;;-0.80;99.90;;;;;;5001293;28;20506;-71
2021/12/21 06:27:50;;;;;;;12.53;3.67;;;-0.80;99.90;;;;;;4984396;28;20495;-71
2021/12/21 06:30:17;;;;;;;3.33;3.10;;;-0.70;99.90;;;;;;4982260;28;20468;-70
2021/12/21 06:32:46;;;;;;;17.20;4.57;;;-0.60;99.90;;;;;;4988332;28;20470;-73
2021/12/21 06:35:15;;;;;;;5.87;4.27;;;-0.70;99.90;;;;;;4981331;28;21085;-68
2021/12/21 06:37:43;;;;;;;9.43;4.27;;;-0.80;99.90;;;;;;4982860;28;20621;-69
2021/12/21 06:40:11;;;;;;;10.73;5.07;;;-0.80;99.90;;;;;;4987771;28;21532;-71
2021/12/21 06:42:39;;;;;;;9.33;4.23;;;-0.70;99.90;;;;;;4988916;28;20868;-71
2021/12/21 06:45:14;;;;;;;11.10;5.27;;;-0.80;99.90;;;;;;4974742;28;20434;-71
2021/12/21 06:53:13;;;;;;;4.80;3.63;;;-0.90;99.90;;;;;;5005994;28;20457;-70
2021/12/21 06:55:40;;;;;;;9.97;7.23;;;-1.00;99.90;;;;;;4997117;28;20909;-70
2021/12/21 06:58:07;;;;;;;5.97;4.93;;;-1.10;99.90;;;;;;4984911;28;20455;-71
2021/12/21 07:00:35;;;;;;;1.70;1.60;;;-1.30;99.90;;;;;;4992268;28;20870;-70
2021/12/21 07:03:02;;;;;;;33.93;5.13;;;-1.40;99.90;;;;;;5007858;28;20486;-68
2021/12/21 07:05:31;;;;;;;11.70;3.70;;;-1.50;99.90;;;;;;4978392;28;20518;-69
2021/12/21 07:07:58;;;;;;;4.80;3.70;;;-1.40;99.90;;;;;;4996860;28;20540;-70
2021/12/21 07:10:28;;;;;;;13.70;7.07;;;-1.20;99.90;;;;;;5008958;28;20965;-71
2021/12/21 07:18:29;;;;;;;9.60;2.83;;;-0.80;99.90;;;;;;4991037;28;20486;-71
2021/12/21 07:21:00;;;;;;;9.30;4.60;;;-1.00;99.90;;;;;;4994707;28;20721;-68
2021/12/21 07:23:27;;;;;;;9.97;3.77;;;-1.30;99.90;;;;;;4979206;28;20430;-70
2021/12/21 07:25:54;;;;;;;3.87;3.13;;;-1.40;99.90;;;;;;4979160;28;21102;-70
2021/12/21 07:28:21;;;;;;;3.00;2.70;;;-1.30;99.90;;;;;;5001832;28;20437;-71
2021/12/21 07:30:48;;;;;;;4.30;3.77;;;-1.30;99.90;;;;;;5004792;28;20438;-69
2021/12/21 07:33:16;;;;;;;8.23;4.70;;;-1.30;99.90;;;;;;4999705;28;20520;-70
2021/12/21 07:35:43;;;;;;;10.87;5.90;;;-1.30;99.90;;;;;;4967195;28;20567;-71
2021/12/21 07:38:12;;;;;;;7.03;3.57;;;-1.30;99.90;;;;;;4984693;28;20434;-71
2021/12/21 07:40:39;;;;;;;13.37;7.70;;;-1.30;99.90;;;;;;4971308;28;20439;-72
2021/12/21 07:43:07;;;;;;;13.80;6.37;;;-1.30;99.90;;;;;;4982526;28;20486;-70
2021/12/21 07:45:34;;;;;;;10.63;7.27;;;-1.10;99.90;;;;;;4958978;28;20452;-72
2021/12/21 07:48:02;;;;;;;33.23;9.97;;;-1.00;99.90;;;;;;4990590;28;20579;-69
2021/12/21 07:50:29;;;;;;;18.33;6.10;;;-1.00;99.90;;;;;;4972683;28;21517;-69
2021/12/21 07:53:00;;;;;;;18.30;6.40;;;-1.00;99.90;;;;;;4978114;28;20652;-71
2021/12/21 07:55:28;;;;;;;11.83;5.63;;;-1.00;99.90;;;;;;4996661;28;21606;-71
2021/12/21 07:57:56;;;;;;;9.83;4.57;;;-1.00;99.90;;;;;;4962246;28;20431;-73
2021/12/21 08:00:23;;;;;;;17.07;6.47;;;-1.00;99.90;;;;;;4987983;28;20488;-70
2021/12/21 08:02:50;;;;;;;13.13;5.87;;;-0.90;99.90;;;;;;4987994;28;20505;-70
2021/12/21 08:05:18;;;;;;;20.90;8.17;;;-0.80;99.90;;;;;;4982800;28;21018;-70
2021/12/21 08:07:51;;;;;;;3.90;2.90;;;-0.70;99.90;;;;;;4983964;28;20446;-71
2021/12/21 08:10:26;;;;;;;10.10;5.57;;;-0.60;99.90;;;;;;4978626;28;20438;-71
2021/12/21 08:12:55;;;;;;;5.37;4.83;;;-0.70;99.90;;;;;;4971658;28;20461;-71
2021/12/21 08:15:23;;;;;;;8.80;5.40;;;-0.80;99.90;;;;;;4981641;28;20432;-69
2021/12/21 08:17:50;;;;;;;7.17;4.87;;;-0.90;99.90;;;;;;4974879;28;21476;-69
2021/12/21 08:20:19;;;;;;;14.93;6.60;;;-0.80;99.90;;;;;;4998062;28;20454;-68
2021/12/21 08:22:46;;;;;;;5.57;4.10;;;-0.70;99.90;;;;;;4987938;28;20599;-71
2021/12/21 08:25:13;;;;;;;15.20;8.03;;;-0.70;99.90;;;;;;4986003;28;20463;-72
2021/12/21 08:27:40;;;;;;;9.20;2.90;;;-0.70;99.90;;;;;;4972928;28;20459;-72
2021/12/21 08:30:10;;;;;;;7.57;4.80;;;-0.60;99.90;;;;;;4975199;28;20615;-70
2021/12/21 08:32:37;;;;;;;9.43;5.27;;;-0.60;99.90;;;;;;4974189;28;20486;-72
2021/12/21 08:35:06;;;;;;;15.33;5.63;;;-0.60;99.90;;;;;;4964429;28;20480;-71
2021/12/21 08:37:34;;;;;;;9.10;5.23;;;-0.60;99.90;;;;;;4996074;28;20435;-69
2021/12/21 08:40:01;;;;;;;11.53;4.60;;;-0.50;99.90;;;;;;4988795;28;20469;-71
2021/12/21 08:42:28;;;;;;;15.23;8.33;;;-0.50;99.90;;;;;;4973746;28;20575;-71
2021/12/21 08:44:56;;;;;;;9.50;4.60;;;-0.60;99.90;;;;;;4983180;28;20502;-70
2021/12/21 08:47:27;;;;;;;1.10;0.90;;;-0.60;99.90;;;;;;4979440;28;20565;-70
2021/12/21 08:49:55;;;;;;;5.90;4.90;;;-0.70;99.90;;;;;;5001518;28;20537;-70
2021/12/21 08:52:22;;;;;;;11.00;4.20;;;-0.90;99.90;;;;;;4991664;28;20498;-71
2021/12/21 08:54:49;;;;;;;13.20;6.60;;;-0.90;99.90;;;;;;4983768;28;20854;-70
2021/12/21 08:57:16;;;;;;;6.10;4.37;;;-0.80;99.90;;;;;;4977431;28;20442;-72
2021/12/21 08:59:43;;;;;;;6.90;4.80;;;-0.60;99.90;;;;;;4961424;28;20569;-71
2021/12/21 09:02:11;;;;;;;10.63;5.37;;;-0.70;99.90;;;;;;4979791;28;21767;-71
2021/12/21 09:04:40;;;;;;;7.80;4.57;;;-0.30;99.90;;;;;;4987361;28;20521;-71
2021/12/21 09:07:08;;;;;;;8.50;5.53;;;-0.20;99.90;;;;;;4989921;28;20501;-71
2021/12/21 09:09:35;;;;;;;6.77;3.67;;;-0.20;99.90;;;;;;4993802;28;20509;-71
2021/12/21 09:12:02;;;;;;;7.27;6.27;;;-0.20;99.90;;;;;;4993176;28;20462;-71
2021/12/21 09:14:32;;;;;;;8.23;6.00;;;-0.20;99.90;;;;;;4995923;28;21944;-68
2021/12/21 09:16:59;;;;;;;9.90;4.77;;;-0.10;99.90;;;;;;5001531;28;20460;-70
2021/12/21 09:19:26;;;;;;;10.33;5.47;;;0.00;99.90;;;;;;4975106;28;20479;-71
2021/12/21 09:21:55;;;;;;;6.97;4.10;;;-0.10;99.90;;;;;;5001994;28;20462;-70
2021/12/21 09:24:22;;;;;;;14.20;4.73;;;-0.20;99.90;;;;;;5009431;28;20434;-72
2021/12/21 09:26:49;;;;;;;10.53;4.03;;;-0.30;99.90;;;;;;4998933;28;20463;-70
2021/12/21 09:29:16;;;;;;;10.83;6.40;;;-0.40;99.90;;;;;;4996154;28;20592;-70
2021/12/21 09:31:43;;;;;;;9.97;3.20;;;-0.50;99.90;;;;;;4981988;28;21509;-72
2021/12/21 09:34:10;;;;;;;7.37;5.77;;;-0.50;99.90;;;;;;4995294;28;20442;-70
2021/12/21 09:36:37;;;;;;;9.40;6.90;;;-0.50;99.90;;;;;;5007767;28;20966;-71
2021/12/21 09:39:06;;;;;;;6.70;4.93;;;-0.60;99.90;;;;;;5023756;28;20558;-72
2021/12/21 09:41:33;;;;;;;5.53;4.00;;;-0.60;99.90;;;;;;5002821;28;20461;-71
2021/12/21 09:44:01;;;;;;;12.83;8.47;;;-0.40;99.90;;;;;;5002936;28;20475;-70
2021/12/21 09:46:28;;;;;;;31.33;7.87;;;-0.20;99.90;;;;;;5011156;28;20461;-69
2021/12/21 09:48:55;;;;;;;10.27;5.20;;;0.00;99.90;;;;;;4999525;28;20434;-71
2021/12/21 09:51:23;;;;;;;15.80;6.30;;;0.30;99.90;;;;;;5000805;28;20563;-71
2021/12/21 09:53:51;;;;;;;11.67;6.70;;;0.30;99.90;;;;;;4990920;28;20462;-73
2021/12/21 09:56:20;;;;;;;11.30;5.53;;;0.30;99.90;;;;;;4988842;28;20860;-70
2021/12/21 09:58:47;;;;;;;13.53;5.20;;;0.50;99.90;;;;;;4977465;28;20433;-72
2021/12/21 10:01:18;;;;;;;9.30;7.03;;;0.40;99.90;;;;;;4979864;28;20253;-72
2021/12/21 10:03:45;;;;;;;6.50;3.47;;;0.60;99.90;;;;;;4989017;28;20466;-71
2021/12/21 10:06:14;;;;;;;16.47;6.37;;;0.80;99.90;;;;;;4985915;28;20561;-70
2021/12/21 10:08:42;;;;;;;13.23;8.00;;;1.00;99.90;;;;;;4976986;28;20535;-71
2021/12/21 10:11:18;;;;;;;12.03;9.07;;;1.20;99.90;;;;;;4985759;28;20451;-71
2021/12/21 10:13:47;;;;;;;8.63;5.20;;;1.10;99.90;;;;;;4975132;28;20488;-70
2021/12/21 10:16:20;;;;;;;13.13;7.47;;;0.60;99.90;;;;;;4971418;28;20479;-71
2021/12/21 10:18:47;;;;;;;14.37;7.10;;;0.40;99.90;;;;;;4986208;28;21448;-71
2021/12/21 10:21:16;;;;;;;17.53;7.13;;;0.50;99.90;;;;;;4985033;28;20868;-71
2021/12/21 10:23:46;;;;;;;17.33;8.37;;;0.60;99.90;;;;;;4981676;28;20492;-70
2021/12/21 10:26:19;;;;;;;12.83;7.40;;;0.80;99.90;;;;;;4984295;28;20446;-71
2021/12/21 10:28:49;;;;;;;17.47;7.10;;;0.90;99.90;;;;;;5003166;28;20460;-72
2021/12/21 10:31:24;;;;;;;10.10;7.70;;;0.90;99.90;;;;;;4977428;28;20488;-70
2021/12/21 10:33:53;;;;;;;11.47;8.30;;;0.90;99.90;;;;;;4964993;28;20430;-71
2021/12/21 10:36:20;;;;;;;33.60;10.50;;;1.20;99.90;;;;;;4980006;28;21330;-71
2021/12/21 10:38:50;;;;;;;18.50;10.13;;;1.50;99.90;;;;;;4998591;28;20475;-72
2021/12/21 10:41:20;;;;;;;14.03;7.50;;;1.30;99.90;;;;;;4992552;28;20461;-70
2021/12/21 10:43:58;;;;;;;13.87;7.30;;;1.40;99.90;;;;;;4999386;28;20555;-71
2021/12/21 10:46:28;;;;;;;5.77;5.20;;;1.10;99.90;;;;;;4996559;28;20818;-70
2021/12/21 10:49:06;;;;;;;5.80;3.47;;;1.00;99.90;;;;;;5014691;28;21056;-71
2021/12/21 10:51:33;;;;;;;8.33;6.30;;;0.50;99.90;;;;;;5005818;28;20987;-70
2021/12/21 10:54:00;;;;;;;6.23;4.87;;;0.60;99.90;;;;;;4984697;28;20475;-71
2021/12/21 10:56:27;;;;;;;14.70;6.93;;;0.80;99.90;;;;;;4986290;28;21247;-69
2021/12/21 10:58:54;;;;;;;17.57;7.37;;;1.00;99.90;;;;;;4998293;28;20441;-68
2021/12/21 11:01:27;;;;;;;9.77;5.77;;;0.70;99.90;;;;;;4998325;28;22922;-69
2021/12/21 11:03:56;;;;;;;12.27;6.33;;;0.50;99.90;;;;;;4999477;28;20797;-69
2021/12/21 11:06:27;;;;;;;12.43;7.23;;;0.40;99.90;;;;;;4996762;28;20454;-69
2021/12/21 11:08:57;;;;;;;6.37;5.00;;;0.30;99.90;;;;;;4998830;28;21288;-70
2021/12/21 11:11:29;;;;;;;7.90;6.17;;;0.40;99.90;;;;;;5011504;28;20461;-72
2021/12/21 11:14:08;;;;;;;9.97;5.80;;;0.40;99.90;;;;;;5015045;28;20463;-69
2021/12/21 11:16:42;;;;;;;16.70;7.80;;;0.60;99.90;;;;;;5008267;28;20442;-71
2021/12/21 11:19:09;;;;;;;5.63;4.43;;;0.70;99.90;;;;;;5009655;28;20939;-69
2021/12/21 11:21:37;;;;;;;6.83;4.37;;;0.80;99.90;;;;;;5003701;28;20601;-69
2021/12/21 11:24:07;;;;;;;11.40;5.30;;;0.80;99.90;;;;;;4965568;28;21132;-70
2021/12/21 11:26:34;;;;;;;11.10;7.83;;;0.90;99.90;;;;;;4983062;28;20958;-70
2021/12/21 11:29:05;;;;;;;17.67;7.03;;;1.30;99.90;;;;;;4991846;28;20470;-68
2021/12/21 11:31:37;;;;;;;9.50;5.70;;;1.40;99.90;;;;;;4991222;28;20532;-69
2021/12/21 11:34:08;;;;;;;16.53;7.80;;;1.50;99.90;;;;;;4993872;28;20464;-70
2021/12/21 11:39:20;;;;;;;16.50;8.87;;;1.90;99.90;;;;;;4997751;28;20522;-70
2021/12/21 11:41:48;;;;;;;18.10;7.77;;;1.80;99.90;;;;;;4993064;28;20455;-68
2021/12/21 11:44:20;;;;;;;22.63;9.77;;;2.20;99.90;;;;;;4984578;28;20473;-70
2021/12/21 11:46:54;;;;;;;15.13;9.33;;;2.50;99.90;;;;;;4980294;28;22744;-69
2021/12/21 11:49:31;;;;;;;14.50;5.40;;;2.40;99.90;;;;;;4999100;28;22842;-70
2021/12/21 11:52:14;;;;;;;20.33;12.63;;;2.20;99.90;;;;;;4989587;28;20476;-67
2021/12/21 11:54:47;;;;;;;17.57;10.30;;;1.80;99.90;;;;;;5003447;28;20930;-70
2021/12/21 11:57:14;;;;;;;20.67;8.00;;;1.80;99.90;;;;;;4989314;28;20460;-69
2021/12/21 11:59:41;;;;;;;18.40;10.10;;;2.00;99.90;;;;;;4988852;28;20591;-69
2021/12/21 12:02:09;;;;;;;23.93;10.20;;;1.80;99.90;;;;;;4991008;28;20457;-69
2021/12/21 12:04:37;;;;;;;21.13;9.70;;;2.00;99.90;;;;;;5001673;28;20554;-72
2021/12/21 12:07:17;;;;;;;33.37;12.83;;;2.20;99.90;;;;;;4997138;28;20436;-69
2021/12/21 12:09:44;;;;;;;26.70;10.27;;;2.20;99.90;;;;;;4990568;28;20554;-72
2021/12/21 12:12:13;;;;;;;28.30;11.83;;;2.00;99.90;;;;;;4995682;28;20484;-70
2021/12/21 12:14:44;;;;;;;34.73;15.90;;;1.90;99.90;;;;;;4997482;28;20460;-71
2021/12/21 12:17:14;;;;;;;30.97;11.30;;;1.90;99.90;;;;;;4996899;28;20463;-71
2021/12/21 12:19:51;;;;;;;61.87;15.60;;;1.90;99.90;;;;;;5011730;28;20474;-70
2021/12/21 12:22:18;;;;;;;33.70;12.87;;;1.90;99.90;;;;;;5006324;28;20464;-70
2021/12/21 12:24:47;;;;;;;37.63;17.03;;;2.00;99.90;;;;;;4990560;28;21009;-69
2021/12/21 12:27:20;;;;;;;43.77;17.47;;;2.60;99.90;;;;;;4996745;28;20438;-72
2021/12/21 12:29:49;;;;;;;19.67;10.73;;;2.90;99.90;;;;;;4995273;28;20474;-71
2021/12/21 12:32:18;;;;;;;36.00;13.00;;;2.70;99.90;;;;;;4983760;28;20465;-71
2021/12/21 12:34:46;;;;;;;38.63;13.73;;;2.70;99.90;;;;;;4990418;28;20616;-71
2021/12/21 12:37:19;;;;;;;20.50;10.53;;;2.70;99.90;;;;;;4983154;28;20496;-71
2021/12/21 12:39:48;;;;;;;39.00;14.97;;;2.90;99.90;;;;;;4967580;28;21674;-71
2021/12/21 12:42:21;;;;;;;32.63;13.33;;;2.90;99.90;;;;;;4980745;28;21173;-72
2021/12/21 12:44:51;;;;;;;33.93;13.10;;;3.30;99.90;;;;;;4982319;28;21015;-71
2021/12/21 12:47:18;;;;;;;26.27;10.60;;;3.90;99.90;;;;;;4972157;28;20452;-72
2021/12/21 12:49:52;;;;;;;22.67;11.40;;;4.60;99.90;;;;;;4964109;28;20536;-72
2021/12/21 12:52:24;;;;;;;25.83;10.70;;;4.10;99.90;;;;;;4981479;28;20458;-71
2021/12/21 12:54:55;;;;;;;22.23;11.80;;;4.10;99.90;;;;;;4974832;28;20543;-73
2021/12/21 12:57:32;;;;;;;19.47;9.83;;;3.80;99.90;;;;;;4996264;28;20536;-70
2021/12/21 13:00:08;;;;;;;20.43;9.50;;;3.40;99.90;;;;;;4969999;28;20563;-72
2021/12/21 13:02:35;;;;;;;27.23;11.00;;;2.70;99.90;;;;;;4968039;28;20560;-70
2021/12/21 13:05:08;;;;;;;25.20;10.27;;;2.20;99.90;;;;;;4981775;28;20439;-71
2021/12/21 13:07:36;;;;;;;34.77;11.70;;;1.90;99.90;;;;;;4984456;28;20489;-71
2021/12/21 13:10:07;;;;;;;30.50;13.00;;;1.70;99.90;;;;;;4973041;28;20554;-72
2021/12/21 13:12:35;;;;;;;26.87;9.57;;;1.90;99.90;;;;;;4996125;28;21348;-70
2021/12/21 13:15:02;;;;;;;17.23;10.77;;;2.00;99.90;;;;;;4995987;28;20518;-71
2021/12/21 13:17:29;;;;;;;49.77;16.30;;;1.90;99.90;;;;;;4985843;28;21199;-70
2021/12/21 13:19:57;;;;;;;34.43;12.73;;;1.80;99.90;;;;;;4976154;28;21304;-71
2021/12/21 13:22:27;;;;;;;25.00;14.67;;;1.80;99.90;;;;;;4982928;28;22620;-70
2021/12/21 13:24:55;;;;;;;32.53;16.57;;;1.60;99.90;;;;;;4961860;28;21876;-72
2021/12/21 13:27:24;;;;;;;64.13;13.57;;;1.50;99.90;;;;;;4976071;28;21763;-69
2021/12/21 13:29:52;;;;;;;19.63;10.93;;;1.60;99.90;;;;;;4985593;28;20452;-71
2021/12/21 13:32:22;;;;;;;54.80;17.67;;;1.60;99.90;;;;;;4982340;28;20506;-71
2021/12/21 13:34:53;;;;;;;66.00;15.47;;;1.50;99.90;;;;;;4972347;28;20550;-74
2021/12/21 13:37:22;;;;;;;65.30;17.67;;;1.70;99.90;;;;;;4982369;28;20446;-70
2021/12/21 13:39:59;;;;;;;39.70;14.30;;;1.90;99.90;;;;;;4983679;28;21172;-71